createdAt,value
2019-02-02T00:01:09.709Z,23.52
2019-02-02T00:03:52.738Z,21.82
2019-02-02T00:06:33.483Z,24.50
2019-02-02T00:09:14.371Z,22.48
2019-02-02T00:11:55.151Z,22.30
2019-02-02T00:14:35.500Z,23.25
2019-02-02T00:17:16.327Z,23.38
2019-02-02T00:19:56.688Z,24.45
2019-02-02T00:22:37.617Z,24.90
2019-02-02T00:25:17.970Z,23.30
2019-02-02T00:27:58.679Z,22.50
2019-02-02T00:30:39.359Z,24.20
2019-02-02T00:33:23.631Z,23.90
2019-02-02T00:36:04.484Z,25.12
2019-02-02T00:38:45.059Z,21.40
2019-02-02T00:41:26.030Z,22.50
2019-02-02T00:43:55.579Z,23.67
2019-02-02T00:49:38.822Z,23.55
2019-02-02T00:52:26.799Z,25.50
2019-02-02T00:55:14.867Z,24.00
2019-02-02T00:58:03.026Z,25.35
2019-02-02T01:00:51.233Z,23.75
2019-02-02T01:03:39.357Z,25.92
2019-02-02T01:12:28.959Z,25.12
2019-02-02T01:21:19.066Z,24.90
2019-02-02T01:24:07.365Z,23.57
2019-02-02T01:26:55.513Z,24.67
2019-02-02T01:32:37.492Z,25.72
2019-02-02T01:35:25.600Z,25.25
2019-02-02T01:38:14.028Z,25.15
2019-02-02T01:41:02.385Z,24.67
2019-02-02T01:43:50.659Z,23.07
2019-02-02T01:46:31.621Z,22.65
2019-02-02T01:49:12.372Z,24.63
2019-02-02T01:51:53.823Z,22.50
2019-02-02T01:54:34.880Z,22.90
2019-02-02T01:57:15.820Z,24.30
2019-02-02T01:59:56.608Z,23.85
2019-02-02T02:02:37.241Z,24.75
2019-02-02T02:05:18.051Z,22.93
2019-02-02T02:07:59.329Z,22.27
2019-02-02T02:10:39.969Z,23.10
2019-02-02T02:13:20.744Z,24.43
2019-02-02T02:16:01.787Z,23.15
2019-02-02T02:18:42.304Z,24.55
2019-02-02T02:21:22.921Z,24.40
2019-02-02T02:24:03.737Z,23.00
2019-02-02T02:26:44.695Z,22.55
2019-02-02T02:29:26.110Z,24.23
2019-02-02T02:32:06.405Z,24.67
2019-02-02T02:34:46.888Z,24.52
2019-02-02T02:37:27.717Z,25.65
2019-02-02T02:40:08.525Z,24.67
2019-02-02T02:42:49.103Z,24.82
2019-02-02T02:45:30.155Z,26.45
2019-02-02T02:48:10.703Z,25.70
2019-02-02T02:50:49.993Z,25.23
2019-02-02T02:53:38.218Z,23.98
2019-02-02T02:56:26.409Z,25.90
2019-02-02T02:59:06.925Z,24.90
2019-02-02T03:01:48.001Z,25.35
2019-02-02T03:04:28.723Z,23.75
2019-02-02T03:07:09.437Z,26.80
2019-02-02T03:09:49.803Z,26.95
2019-02-02T03:12:30.445Z,26.45
2019-02-02T03:15:11.081Z,25.70
2019-02-02T03:17:51.775Z,24.70
2019-02-02T03:20:32.666Z,25.30
2019-02-02T03:23:13.790Z,26.07
2019-02-02T03:25:54.660Z,24.23
2019-02-02T03:28:35.535Z,25.88
2019-02-02T03:31:16.197Z,25.45
2019-02-02T03:33:56.782Z,24.50
2019-02-02T03:36:37.234Z,25.97
2019-02-02T03:39:17.801Z,26.33
2019-02-02T03:41:58.537Z,25.80
2019-02-02T03:44:39.403Z,26.68
2019-02-02T03:47:19.728Z,27.48
2019-02-02T03:50:00.739Z,29.25
2019-02-02T03:52:41.308Z,25.77
2019-02-02T03:55:22.034Z,28.95
2019-02-02T03:58:02.418Z,27.37
2019-02-02T04:00:43.011Z,29.15
2019-02-02T04:03:23.650Z,29.10
2019-02-02T04:06:04.269Z,27.60
2019-02-02T04:08:44.918Z,29.57
2019-02-02T04:11:25.707Z,30.57
2019-02-02T04:14:06.605Z,28.25
2019-02-02T04:16:47.205Z,31.27
2019-02-02T04:19:28.088Z,30.05
2019-02-02T04:22:08.998Z,26.90
2019-02-02T04:24:49.619Z,26.85
2019-02-02T04:27:30.453Z,28.35
2019-02-02T04:30:11.777Z,26.95
2019-02-02T04:32:53.134Z,27.90
2019-02-02T04:35:34.259Z,26.55
2019-02-02T04:38:14.992Z,27.52
2019-02-02T04:40:55.875Z,27.45
2019-02-02T04:43:36.531Z,28.95
2019-02-02T04:46:17.483Z,28.40
2019-02-02T04:48:57.997Z,28.38
2019-02-02T04:51:38.678Z,28.47
2019-02-02T04:54:19.355Z,27.55
2019-02-02T04:57:00.342Z,29.00
2019-02-02T04:59:40.999Z,27.65
2019-02-02T05:02:21.827Z,30.52
2019-02-02T05:05:02.544Z,28.75
2019-02-02T05:07:43.265Z,27.70
2019-02-02T05:10:24.404Z,28.15
2019-02-02T05:13:04.720Z,29.60
2019-02-02T05:18:27.797Z,29.80
2019-02-02T05:21:08.663Z,32.20
2019-02-02T05:23:49.305Z,28.95
2019-02-02T05:26:29.971Z,27.67
2019-02-02T05:29:10.619Z,30.70
2019-02-02T05:31:51.443Z,29.12
2019-02-02T05:34:32.322Z,27.22
2019-02-02T05:37:13.619Z,29.70
2019-02-02T05:39:54.604Z,28.85
2019-02-02T05:42:35.412Z,29.75
2019-02-02T05:45:16.518Z,28.80
2019-02-02T05:47:56.971Z,29.75
2019-02-02T05:50:37.800Z,30.62
2019-02-02T05:53:18.524Z,28.12
2019-02-02T05:55:59.365Z,31.65
2019-02-02T05:58:40.143Z,31.65
2019-02-02T06:01:21.049Z,31.95
2019-02-02T06:04:01.593Z,28.20
2019-02-02T06:06:42.858Z,30.30
2019-02-02T06:09:23.431Z,30.90
2019-02-02T06:12:04.654Z,29.23
2019-02-02T06:14:45.463Z,32.15
2019-02-02T06:17:26.030Z,29.67
2019-02-02T06:20:07.013Z,30.30
2019-02-02T06:22:48.363Z,26.70
2019-02-02T06:25:29.028Z,29.48
2019-02-02T06:28:09.902Z,29.87
2019-02-02T06:30:50.917Z,31.45
2019-02-02T06:33:31.380Z,31.42
2019-02-02T06:38:54.599Z,29.07
2019-02-02T06:41:35.086Z,31.02
2019-02-02T06:44:15.912Z,33.42
2019-02-02T06:46:56.876Z,30.00
2019-02-02T06:49:37.584Z,29.87
2019-02-02T06:52:18.358Z,28.12
2019-02-02T06:54:59.444Z,28.27
2019-02-02T06:57:39.953Z,29.23
2019-02-02T07:00:20.757Z,30.10
2019-02-02T07:03:01.444Z,28.00
2019-02-02T07:05:42.808Z,26.75
2019-02-02T07:08:23.473Z,28.75
2019-02-02T07:11:04.214Z,28.90
2019-02-02T07:13:43.561Z,31.73
2019-02-02T07:16:31.609Z,29.00
2019-02-02T07:19:19.965Z,29.77
2019-02-02T07:25:01.938Z,29.37
2019-02-02T07:27:50.045Z,33.95
2019-02-02T07:33:32.413Z,35.03
2019-02-02T07:36:20.477Z,32.58
2019-02-02T07:39:08.614Z,35.33
2019-02-02T07:41:56.688Z,35.88
2019-02-02T07:47:38.039Z,35.10
2019-02-02T07:50:26.140Z,35.50
2019-02-02T07:53:14.175Z,35.85
2019-02-02T07:56:02.453Z,37.70
2019-02-02T08:01:44.134Z,35.93
2019-02-02T08:07:07.836Z,36.38
2019-02-02T08:09:48.675Z,34.30
2019-02-02T08:12:28.101Z,36.68
2019-02-02T08:15:17.242Z,38.30
2019-02-02T08:18:05.663Z,39.23
2019-02-02T08:23:47.463Z,37.23
2019-02-02T08:26:47.426Z,39.33
2019-02-02T08:29:25.571Z,37.48
2019-02-02T08:32:13.786Z,37.67
2019-02-02T08:35:02.163Z,37.65
2019-02-02T08:40:58.056Z,37.50
2019-02-02T08:43:46.314Z,32.85
2019-02-02T08:46:27.654Z,34.73
2019-02-02T08:49:08.999Z,34.38
2019-02-02T08:51:50.374Z,35.92
2019-02-02T08:54:31.100Z,38.17
2019-02-02T08:57:11.857Z,31.57
2019-02-02T08:59:52.399Z,42.45
2019-02-02T09:02:33.738Z,33.60
2019-02-02T09:05:15.005Z,36.15
2019-02-02T09:07:55.535Z,33.88
2019-02-02T09:10:36.418Z,39.53
2019-02-02T09:13:17.558Z,41.20
2019-02-02T09:15:58.208Z,34.53
2019-02-02T09:18:39.026Z,35.43
2019-02-02T09:21:19.485Z,37.00
2019-02-02T09:24:00.679Z,32.25
2019-02-02T09:26:41.907Z,34.40
2019-02-02T09:29:22.848Z,32.42
2019-02-02T09:32:04.148Z,31.93
2019-02-02T09:34:44.691Z,34.30
2019-02-02T09:37:25.220Z,33.38
2019-02-02T09:40:05.836Z,34.33
2019-02-02T09:42:46.623Z,32.23
2019-02-02T09:45:27.694Z,32.30
2019-02-02T09:48:08.301Z,34.18
2019-02-02T09:50:48.948Z,31.00
2019-02-02T09:53:29.697Z,31.77
2019-02-02T09:56:10.498Z,30.85
2019-02-02T10:01:40.394Z,35.43
2019-02-02T10:04:19.455Z,28.65
2019-02-02T10:07:07.541Z,31.45
2019-02-02T10:09:55.710Z,35.05
2019-02-02T10:12:43.878Z,34.65
2019-02-02T10:15:32.531Z,35.15
2019-02-02T10:18:20.599Z,44.25
2019-02-02T10:21:09.029Z,37.48
2019-02-02T10:23:38.230Z,36.55
2019-02-02T10:26:07.523Z,37.55
2019-02-02T10:28:36.653Z,37.05
2019-02-02T10:31:06.030Z,37.78
2019-02-02T10:33:35.713Z,38.73
2019-02-02T10:36:05.357Z,41.08
2019-02-02T10:38:34.901Z,39.83
2019-02-02T10:41:03.889Z,41.50
2019-02-02T10:43:32.685Z,40.12
2019-02-02T10:46:01.851Z,42.78
2019-02-02T10:48:31.147Z,40.15
2019-02-02T10:51:00.315Z,43.58
2019-02-02T10:53:29.484Z,43.10
2019-02-02T10:55:58.752Z,43.42
2019-02-02T10:58:28.129Z,45.00
2019-02-02T11:00:57.600Z,45.00
2019-02-02T11:03:27.146Z,43.23
2019-02-02T11:05:58.253Z,43.52
2019-02-02T11:08:27.642Z,42.10
2019-02-02T11:10:57.113Z,42.83
2019-02-02T11:13:26.466Z,39.75
2019-02-02T11:16:08.437Z,38.48
2019-02-02T11:18:37.721Z,38.13
2019-02-02T11:21:07.499Z,36.93
2019-02-02T11:23:39.569Z,32.78
2019-02-02T11:26:08.792Z,36.73
2019-02-02T11:28:38.124Z,37.00
2019-02-02T11:31:07.673Z,37.83
2019-02-02T11:33:36.837Z,42.13
2019-02-02T11:36:08.631Z,41.37
2019-02-02T11:38:39.106Z,41.13
2019-02-02T11:41:08.231Z,40.15
2019-02-02T11:43:40.660Z,37.67
2019-02-02T11:46:10.086Z,35.52
2019-02-02T11:48:41.639Z,39.73
2019-02-02T11:51:10.880Z,36.25
2019-02-02T11:53:40.513Z,36.45
2019-02-02T11:56:09.775Z,37.70
2019-02-02T11:58:39.049Z,36.95
2019-02-02T12:01:08.282Z,39.85
2019-02-02T12:03:37.218Z,36.33
2019-02-02T12:06:06.727Z,39.50
2019-02-02T12:08:36.128Z,38.53
2019-02-02T12:11:05.907Z,35.17
2019-02-02T12:13:35.324Z,39.48
2019-02-02T12:16:04.719Z,36.53
2019-02-02T12:18:35.139Z,35.50
2019-02-02T12:21:04.579Z,37.48
2019-02-02T12:23:33.994Z,36.68
2019-02-02T12:26:04.272Z,37.13
2019-02-02T12:28:34.284Z,37.38
2019-02-02T12:31:06.289Z,35.43
2019-02-02T12:33:38.120Z,38.15
2019-02-02T12:36:11.764Z,33.73
2019-02-02T12:38:40.778Z,32.40
2019-02-02T12:41:10.002Z,36.08
2019-02-02T12:43:39.483Z,34.65
2019-02-02T12:46:08.951Z,34.48
2019-02-02T12:48:37.943Z,34.53
2019-02-02T12:51:07.336Z,36.95
2019-02-02T12:53:36.389Z,38.48
2019-02-02T12:56:09.939Z,39.78
2019-02-02T12:58:39.097Z,36.55
2019-02-02T13:01:08.231Z,41.77
2019-02-02T13:03:37.633Z,35.75
2019-02-02T13:06:07.062Z,37.55
2019-02-02T13:08:36.819Z,37.93
2019-02-02T13:11:05.807Z,37.40
2019-02-02T13:13:35.316Z,37.13
2019-02-02T13:16:04.479Z,38.20
2019-02-02T13:18:33.400Z,38.63
2019-02-02T13:21:02.967Z,37.00
2019-02-02T13:23:32.309Z,36.70
2019-02-02T13:26:05.563Z,37.40
2019-02-02T13:28:32.869Z,38.10
2019-02-02T13:31:02.743Z,39.15
2019-02-02T13:33:31.748Z,34.92
2019-02-02T13:36:00.927Z,37.00
2019-02-02T13:38:30.262Z,40.20
2019-02-02T13:40:59.416Z,39.10
2019-02-02T13:43:28.684Z,37.28
2019-02-02T13:45:57.783Z,38.00
2019-02-02T13:48:26.817Z,38.70
2019-02-02T13:50:55.878Z,36.48
2019-02-02T13:53:25.467Z,67.27
2019-02-02T13:55:54.454Z,35.73
2019-02-02T13:58:23.553Z,36.88
2019-02-02T14:00:52.450Z,35.75
2019-02-02T14:03:21.396Z,34.23
2019-02-02T14:05:50.414Z,36.05
2019-02-02T14:08:19.479Z,35.58
2019-02-02T14:10:48.499Z,32.48
2019-02-02T14:13:17.457Z,36.73
2019-02-02T14:15:46.796Z,34.85
2019-02-02T14:18:16.125Z,35.75
2019-02-02T14:20:45.135Z,36.88
2019-02-02T14:23:14.284Z,37.17
2019-02-02T14:25:43.436Z,38.92
2019-02-02T14:28:12.516Z,40.35
2019-02-02T14:30:41.630Z,35.38
2019-02-02T14:33:14.282Z,32.40
2019-02-02T14:35:42.229Z,33.00
2019-02-02T14:38:11.268Z,34.40
2019-02-02T14:40:40.643Z,29.70
2019-02-02T14:43:09.964Z,30.68
2019-02-02T14:45:38.868Z,30.00
2019-02-02T14:48:07.877Z,31.87
2019-02-02T14:50:37.285Z,31.15
2019-02-02T14:53:07.500Z,30.43
2019-02-02T14:55:37.007Z,30.93
2019-02-02T14:58:06.542Z,33.38
2019-02-02T15:00:35.836Z,31.42
2019-02-02T15:03:05.210Z,34.33
2019-02-02T15:05:42.538Z,33.77
2019-02-02T15:08:05.154Z,31.52
2019-02-02T15:10:34.325Z,32.50
2019-02-02T15:13:03.572Z,37.38
2019-02-02T15:15:32.571Z,35.75
2019-02-02T15:18:02.242Z,35.58
2019-02-02T15:20:36.360Z,32.08
2019-02-02T15:23:06.496Z,31.52
2019-02-02T15:25:35.866Z,33.18
2019-02-02T15:28:05.406Z,34.00
2019-02-02T15:30:35.591Z,32.98
2019-02-02T15:33:05.572Z,33.02
2019-02-02T15:35:34.660Z,30.72
2019-02-02T15:38:03.649Z,32.03
2019-02-02T15:40:32.778Z,29.52
2019-02-02T15:43:01.835Z,31.82
2019-02-02T15:45:31.290Z,33.00
2019-02-02T15:48:00.805Z,32.98
2019-02-02T15:50:30.113Z,32.50
2019-02-02T15:53:18.405Z,28.87
2019-02-02T15:56:06.552Z,30.35
2019-02-02T15:58:54.567Z,31.40
2019-02-02T16:04:36.751Z,30.27
2019-02-02T16:07:24.957Z,30.95
2019-02-02T16:10:05.949Z,30.05
2019-02-02T16:12:46.389Z,30.10
2019-02-02T16:15:26.961Z,30.45
2019-02-02T16:18:07.825Z,29.07
2019-02-02T16:20:48.307Z,31.95
2019-02-02T16:23:28.947Z,30.08
2019-02-02T16:26:09.728Z,33.83
2019-02-02T16:28:53.579Z,31.00
2019-02-02T16:31:22.867Z,29.80
2019-02-02T16:34:01.459Z,30.88
2019-02-02T16:36:23.080Z,27.95
2019-02-02T16:38:52.033Z,30.60
2019-02-02T16:41:21.399Z,33.42
2019-02-02T16:43:50.536Z,34.13
2019-02-02T16:46:19.532Z,32.17
2019-02-02T16:48:48.623Z,30.60
2019-02-02T16:51:17.638Z,30.45
2019-02-02T16:53:47.936Z,31.33
2019-02-02T16:56:16.934Z,31.93
2019-02-02T16:58:46.310Z,31.10
2019-02-02T17:01:16.047Z,37.87
2019-02-02T17:03:45.065Z,36.37
2019-02-02T17:06:14.971Z,35.50
2019-02-02T17:08:44.581Z,36.27
2019-02-02T17:11:13.691Z,42.43
2019-02-02T17:13:43.122Z,38.43
2019-02-02T17:16:12.567Z,39.27
2019-02-02T17:18:44.972Z,38.33
2019-02-02T17:21:14.051Z,37.93
2019-02-02T17:23:43.626Z,36.15
2019-02-02T17:26:12.942Z,33.03
2019-02-02T17:28:42.291Z,38.42
2019-02-02T17:31:11.895Z,34.70
2019-02-02T17:33:41.245Z,36.63
2019-02-02T17:36:10.422Z,36.50
2019-02-02T17:38:39.827Z,38.33
2019-02-02T17:41:11.580Z,36.00
2019-02-02T17:43:40.557Z,33.77
2019-02-02T17:46:09.776Z,33.00
2019-02-02T17:48:38.672Z,37.83
2019-02-02T17:51:07.960Z,36.00
2019-02-02T17:53:37.047Z,37.30
2019-02-02T17:56:06.046Z,35.63
2019-02-02T17:58:39.742Z,33.87
2019-02-02T18:01:06.009Z,34.20
2019-02-02T18:03:35.542Z,34.47
2019-02-02T18:06:04.638Z,32.60
2019-02-02T18:08:34.362Z,35.92
2019-02-02T18:11:03.990Z,36.35
2019-02-02T18:13:33.237Z,35.25
2019-02-02T18:16:02.053Z,38.00
2019-02-02T18:18:31.170Z,36.40
2019-02-02T18:21:00.631Z,35.40
2019-02-02T18:23:29.538Z,36.05
2019-02-02T18:25:59.563Z,36.65
2019-02-02T18:28:29.861Z,36.77
2019-02-02T18:30:58.888Z,38.17
2019-02-02T18:33:28.069Z,40.90
2019-02-02T18:35:58.609Z,37.42
2019-02-02T18:38:27.507Z,42.65
2019-02-02T18:40:56.402Z,38.07
2019-02-02T18:43:25.982Z,38.10
2019-02-02T18:45:55.125Z,36.68
2019-02-02T18:48:24.072Z,43.35
2019-02-02T18:50:53.882Z,38.00
2019-02-02T18:53:23.076Z,37.00
2019-02-02T18:56:00.643Z,36.55
2019-02-02T18:58:29.719Z,39.00
2019-02-02T19:01:02.067Z,39.15
2019-02-02T19:03:31.516Z,37.23
2019-02-02T19:06:01.026Z,39.70
2019-02-02T19:08:30.220Z,40.17
2019-02-02T19:11:03.490Z,36.48
2019-02-02T19:13:32.545Z,33.18
2019-02-02T19:16:02.372Z,34.45
2019-02-02T19:18:33.312Z,37.67
2019-02-02T19:21:04.862Z,37.00
2019-02-02T19:23:34.326Z,41.73
2019-02-02T19:26:04.836Z,36.03
2019-02-02T19:28:40.265Z,40.65
2019-02-02T19:31:11.875Z,37.40
2019-02-02T19:33:40.772Z,37.23
2019-02-02T19:36:09.947Z,39.45
2019-02-02T19:38:42.093Z,37.83
2019-02-02T19:41:11.240Z,39.15
2019-02-02T19:43:40.935Z,38.20
2019-02-02T19:46:10.341Z,38.95
2019-02-02T19:48:39.922Z,36.38
2019-02-02T19:51:09.425Z,39.67
2019-02-02T19:53:38.738Z,38.42
2019-02-02T19:56:07.954Z,39.03
2019-02-02T19:58:37.033Z,37.58
2019-02-02T20:01:06.081Z,33.80
2019-02-02T20:03:39.188Z,36.55
2019-02-02T20:06:09.051Z,37.13
2019-02-02T20:08:38.316Z,36.15
2019-02-02T20:11:09.317Z,35.03
2019-02-02T20:13:38.660Z,38.40
2019-02-02T20:16:07.956Z,36.90
2019-02-02T20:18:46.125Z,34.15
2019-02-02T20:21:17.466Z,36.25
2019-02-02T20:23:46.764Z,33.63
2019-02-02T20:26:16.182Z,33.10
2019-02-02T20:28:46.894Z,31.20
2019-02-02T20:31:20.095Z,33.28
2019-02-02T20:33:49.218Z,32.05
2019-02-02T20:36:18.911Z,32.17
2019-02-02T20:38:48.666Z,30.05
2019-02-02T20:41:18.172Z,32.23
2019-02-02T20:43:54.817Z,34.73
2019-02-02T20:46:33.545Z,31.45
2019-02-02T20:49:03.583Z,29.00
2019-02-02T20:51:33.216Z,32.78
2019-02-02T20:54:05.587Z,30.52
2019-02-02T20:56:37.464Z,30.85
2019-02-02T20:59:08.522Z,30.75
2019-02-02T21:01:37.691Z,27.22
2019-02-02T21:04:07.064Z,28.17
2019-02-02T21:06:36.436Z,30.32
2019-02-02T21:09:07.777Z,27.05
2019-02-02T21:11:38.846Z,24.90
2019-02-02T21:14:08.424Z,25.65
2019-02-02T21:16:39.517Z,24.50
2019-02-02T21:19:27.675Z,23.70
2019-02-02T21:22:16.109Z,27.10
2019-02-02T21:24:44.894Z,23.85
2019-02-02T21:27:14.986Z,23.92
2019-02-02T21:29:44.821Z,22.02
2019-02-02T21:32:13.614Z,22.35
2019-02-02T21:34:43.334Z,21.60
2019-02-02T21:37:12.582Z,21.48
2019-02-02T21:39:41.669Z,23.92
2019-02-02T21:42:36.328Z,26.05
2019-02-02T21:45:07.555Z,24.07
2019-02-02T21:47:37.114Z,24.15
2019-02-02T21:50:08.809Z,27.50
2019-02-02T21:52:38.411Z,24.37
2019-02-02T21:55:14.692Z,26.02
2019-02-02T21:57:45.396Z,22.65
2019-02-02T22:00:21.063Z,24.20
2019-02-02T22:02:52.198Z,24.05
2019-02-02T22:05:21.315Z,22.60
2019-02-02T22:07:50.409Z,21.60
2019-02-02T22:10:21.157Z,23.67
2019-02-02T22:12:52.872Z,21.82
2019-02-02T22:15:23.667Z,22.35
2019-02-02T22:17:53.055Z,23.92
2019-02-02T22:20:22.757Z,23.35
2019-02-02T22:22:52.263Z,22.65
2019-02-02T22:25:26.384Z,20.12
2019-02-02T22:28:07.373Z,21.45
2019-02-02T22:30:48.624Z,19.95
2019-02-02T22:33:29.820Z,24.50
2019-02-02T22:36:10.161Z,24.00
2019-02-02T22:38:50.754Z,19.57
2019-02-02T22:41:32.242Z,19.95
2019-02-02T22:44:13.264Z,20.50
2019-02-02T22:46:53.822Z,19.80
2019-02-02T22:49:34.636Z,18.90
2019-02-02T22:52:16.103Z,19.17
2019-02-02T22:57:26.968Z,19.75
2019-02-02T23:03:50.170Z,20.27
2019-02-02T23:06:42.832Z,17.10
2019-02-02T23:09:51.843Z,18.05
2019-02-02T23:13:11.124Z,20.80
2019-02-02T23:16:19.500Z,17.90
2019-02-02T23:18:48.627Z,18.45
2019-02-02T23:21:17.789Z,20.23
2019-02-02T23:23:46.870Z,20.08
2019-02-02T23:26:16.672Z,19.85
2019-02-02T23:28:46.164Z,18.87
2019-02-02T23:31:17.805Z,17.45
2019-02-02T23:33:47.550Z,18.82
2019-02-02T23:36:18.083Z,18.70
2019-02-02T23:39:08.071Z,14.98
2019-02-02T23:41:38.535Z,15.40
2019-02-02T23:44:07.456Z,15.08
2019-02-02T23:46:44.128Z,12.93
2019-02-02T23:49:13.789Z,15.23
2019-02-02T23:52:02.076Z,13.72
2019-02-02T23:54:43.163Z,12.70
2019-02-02T23:57:23.871Z,11.65
